New Malden, United Kingdom
Current Conditions -  °F | °C
As of 2:20 PM on Saturday 20 Dec 2014 (Local Time) from EGLL Reporting Station
Scattered Clouds Scattered Clouds  
Wind Chill: 50°   Ceiling: Unl
Heat Index: 50°   Visibility: 6mi
Dew Point: 39°   Wind: 14mph
Humidity: 66%   Direction: 280°W
Pressure: 30.33"   Gusts: NA
Location:  51.4°N, 0.26°W
Report Text: EGLL 201420Z 28012KT 9999 FEW030 SCT034 10/04 Q1027
Loading
Personal Weather Stations






























Interactive Weather Map New forecast layout! Learn more

10-Day Weather Forecast

Advertisements
Track Severe Weather on mobile